• Join FlightAware (Why Join?)
  • Login
  • US Flag 
01:40AM EDT


 

Airport Tracker/Info


-or-


 

Live Flight TrackerFlight Track Log ✈ SKW7367 ✈ 21-Nov-2013 ✈ KDTW - KAPN

Flight Track Log - Related Links

Times and Time Zones

All times are in EST time to prevent confusion due to time zone crossing. See the SKW7367 flight status page for this flight to view local times or setup timezone preferences in your user account.

Time Position Orientation Groundspeed Altitude Reporting Facility
EST Latitude Longitude Course Direction KTS MPH feet Rate Location/Type
04:03PM 42.2106 -83.3650 North 145 167 1,300  Level Cleveland Center
04:05PM 42.1617 -83.4528 233° Southwest 223 257 5,400 2,940 Climbing Cleveland Center
04:06PM 42.1878 -83.5361 293° West 252 290 9,300 2,820 Climbing Cleveland Center
04:07PM 42.5827 -83.3790 North  Level Estimated
04:07PM 42.2439 -83.5989 320° Northwest 297 342 11,300  Level Cleveland Center
04:08PM 42.6753 -83.3855 North  Level Estimated
04:08PM 42.3556 -83.5778 North 340 391 14,600  Level Cleveland Center
04:09PM 42.4564 -83.5433 14° North 362 417 15,000 180 Climbing Cleveland Center
04:10PM 42.5567 -83.5039 16° North 373 429 15,000  Level Cleveland Center
04:11PM 42.6544 -83.4656 16° North 368 423 15,000  Level Cleveland Center
04:12PM 42.7525 -83.4275 16° North 365 420 15,000  Level Cleveland Center
04:13PM 42.8508 -83.3892 16° North 366 421 15,000  Level Cleveland Center
04:14PM 42.9497 -83.3653 10° North 363 418 15,000 -60 Level Cleveland Center
04:15PM 43.0669 -83.3678 359° North 353 406 14,900 -60 Descending Cleveland Center
04:16PM 43.1336 -83.4531 317° Northwest 328 377 14,900  Level Cleveland Center
04:17PM 43.1936 -83.5447 312° West 327 376 14,900  Level Cleveland Center
04:18PM 43.2533 -83.6369 312° West 325 374 14,900  Level Cleveland Center
04:19PM 43.3133 -83.7311 311° West 329 379 14,900  Level Cleveland Center
04:20PM 43.3847 -83.8450 311° West 328 377 14,900  Level Cleveland Center
04:21PM 43.4453 -83.9394 311° West 330 380 14,900  Level Cleveland Center
04:22PM 43.5078 -84.0367 312° West 327 376 14,900  Level Cleveland Center
04:23PM 43.6011 -84.0531 353° North 357 411 14,900  Level Cleveland Center
04:24PM 43.6994 -84.0214 13° North 363 418 15,000  Climbing Cleveland Center
04:25PM 43.7986 -83.9883 14° North 367 422 15,000  Level Cleveland Center
04:26PM 43.8975 -83.9564 13° North 366 421 15,000  Level Cleveland Center
04:27PM 44.0183 -83.9175 13° North 371 427 15,000  Level Cleveland Center
04:28PM 44.1178 -83.8828 14° North 371 427 15,000  Level Cleveland Center
04:29PM 44.2144 -83.8386 18° North 367 422 15,000  Level Cleveland Center
04:30PM 44.2994 -83.7933 21° North 338 389 15,000 -540 Level Cleveland Center
04:32PM 44.3853 -83.7506 20° North 329 379 13,900 -1,260 Descending Cleveland Center
04:33PM 44.4767 -83.7114 17° North 323 372 12,400 -2,220 Descending Cleveland Center
04:34PM 44.5889 -83.6611 18° North 302 348 8,700 -2,460 Descending Minneapolis Center
04:35PM 44.6697 -83.6242 18° North 289 333 6,600 -2,160 Descending Minneapolis Center
04:36PM 44.7417 -83.5908 18° North 279 321 4,300 -1,620 Descending Minneapolis Center
04:37PM 44.8181 -83.5667 13° North 262 302 3,300 -780 Descending Minneapolis Center
04:38PM 44.8756 -83.5619 North 221 254 2,800 -240 Descending Minneapolis Center
04:39PM 44.9339 -83.5606 North 203 234 2,800 -240 Level Minneapolis Center
04:40PM 44.9850 -83.5608 360° North 182 209 2,400 -540 Descending Minneapolis Center
04:41PM 45.0194 -83.5611 360° North 133 153 1,700 -780 Descending Minneapolis Center
04:42PM 45.0592 -83.5611 360° North 133 153 800 -540 Descending Minneapolis Center
04:43PM 45.0903 -83.5603 North 133 153 700 -120 Descending Minneapolis Center